Time;durP1;ratioP1;P1;durP2;ratioP2;P2;SDS_P1;SDS_P2;PMS_P1;PMS_P2;Temp;Humidity;BMP_temperature;BMP_pressure;BME280_temperature;BME280_humidity;BME280_pressure;Samples;Min_cycle;Max_cycle;Signal;HPM_P1;HPM_P2
2021/08/11 00:00:41;;;;;;;12.07;9.55;;;;;;;;;;5050304;28;20209;-68
2021/08/11 00:03:06;;;;;;;11.30;10.10;;;;;;;;;;5051069;28;20169;-68
2021/08/11 00:05:31;;;;;;;12.95;9.45;;;;;;;;;;5050898;28;20224;-67
2021/08/11 00:07:56;;;;;;;11.48;7.93;;;;;;;;;;5051049;28;20215;-68
2021/08/11 00:10:21;;;;;;;10.10;8.30;;;;;;;;;;5050420;28;20173;-68
2021/08/11 00:12:47;;;;;;;13.77;7.85;;;;;;;;;;5051783;28;20173;-69
2021/08/11 00:15:12;;;;;;;9.52;7.40;;;;;;;;;;5054479;28;20292;-68
2021/08/11 00:17:38;;;;;;;10.32;8.02;;;;;;;;;;5054966;28;20185;-68
2021/08/11 00:20:03;;;;;;;10.77;7.72;;;;;;;;;;5054116;28;20213;-68
2021/08/11 00:22:29;;;;;;;12.07;8.70;;;;;;;;;;5036883;28;20258;-69
2021/08/11 00:24:54;;;;;;;10.02;7.82;;;;;;;;;;5054641;28;20197;-69
2021/08/11 00:27:19;;;;;;;10.38;8.10;;;;;;;;;;5036687;28;20166;-68
2021/08/11 00:29:44;;;;;;;11.13;7.25;;;;;;;;;;5054250;28;20193;-69
2021/08/11 00:32:09;;;;;;;10.63;7.95;;;;;;;;;;5054629;28;20178;-70
2021/08/11 00:34:34;;;;;;;9.63;8.00;;;;;;;;;;5054538;28;20579;-72
2021/08/11 00:37:00;;;;;;;11.65;8.32;;;;;;;;;;5054243;28;20173;-69
2021/08/11 00:39:25;;;;;;;11.80;8.13;;;;;;;;;;5054206;28;20204;-70
2021/08/11 00:41:50;;;;;;;9.15;7.00;;;;;;;;;;5054152;28;20550;-70
2021/08/11 00:44:15;;;;;;;8.50;7.47;;;;;;;;;;5054398;28;20193;-69
2021/08/11 00:46:41;;;;;;;12.45;7.47;;;;;;;;;;5036147;28;20277;-68
2021/08/11 00:49:07;;;;;;;10.15;7.10;;;;;;;;;;5053098;28;20196;-70
2021/08/11 00:51:32;;;;;;;9.00;8.10;;;;;;;;;;5054243;28;20177;-70
2021/08/11 00:53:58;;;;;;;10.23;8.38;;;;;;;;;;5054089;28;20196;-69
2021/08/11 00:56:24;;;;;;;11.07;7.53;;;;;;;;;;5054205;28;20327;-69
2021/08/11 00:58:50;;;;;;;9.20;7.70;;;;;;;;;;5053699;28;20299;-70
2021/08/11 01:01:15;;;;;;;9.32;7.57;;;;;;;;;;5053730;28;20200;-68
2021/08/11 01:03:41;;;;;;;13.82;9.68;;;;;;;;;;5053938;28;20185;-68
2021/08/11 01:06:06;;;;;;;9.27;8.27;;;;;;;;;;5053725;28;20608;-68
2021/08/11 01:08:32;;;;;;;9.60;8.18;;;;;;;;;;5053544;28;20257;-68
2021/08/11 01:10:58;;;;;;;11.30;8.97;;;;;;;;;;5053609;28;20184;-69
2021/08/11 01:13:23;;;;;;;9.55;7.68;;;;;;;;;;5053208;28;20248;-68
2021/08/11 01:15:49;;;;;;;11.20;8.77;;;;;;;;;;5053790;28;20304;-69
2021/08/11 01:18:15;;;;;;;10.13;9.00;;;;;;;;;;5053724;28;20180;-68
2021/08/11 01:20:46;;;;;;;11.33;8.77;;;;;;;;;;5053397;28;20228;-69
2021/08/11 01:23:13;;;;;;;13.40;10.43;;;;;;;;;;5051614;28;20169;-68
2021/08/11 01:25:43;;;;;;;11.93;10.03;;;;;;;;;;5053364;28;20198;-69
2021/08/11 01:28:20;;;;;;;13.13;9.93;;;;;;;;;;5053345;28;20182;-69
2021/08/11 01:30:53;;;;;;;13.47;9.27;;;;;;;;;;5053306;28;20272;-68
2021/08/11 01:33:23;;;;;;;13.67;8.27;;;;;;;;;;5035473;28;20643;-69
2021/08/11 01:35:53;;;;;;;11.60;9.00;;;;;;;;;;5053135;28;20752;-68
2021/08/11 01:38:19;;;;;;;10.47;7.67;;;;;;;;;;5053173;28;20185;-69
2021/08/11 01:40:50;;;;;;;12.53;8.20;;;;;;;;;;5053116;28;20661;-68
2021/08/11 01:43:16;;;;;;;10.10;8.70;;;;;;;;;;5053225;28;20178;-68
2021/08/11 01:45:42;;;;;;;11.03;8.90;;;;;;;;;;5053093;28;20243;-68
2021/08/11 01:48:12;;;;;;;11.37;8.90;;;;;;;;;;5052218;28;20272;-69
2021/08/11 01:50:39;;;;;;;11.30;9.43;;;;;;;;;;5052770;28;20184;-69
2021/08/11 01:53:05;;;;;;;12.80;9.20;;;;;;;;;;5052991;28;20227;-68
2021/08/11 01:55:31;;;;;;;13.73;9.60;;;;;;;;;;5053102;28;20304;-68
2021/08/11 01:57:56;;;;;;;11.83;8.77;;;;;;;;;;5053108;28;20177;-68
2021/08/11 02:00:22;;;;;;;14.23;10.77;;;;;;;;;;5052368;28;20189;-69
2021/08/11 02:02:47;;;;;;;12.77;9.80;;;;;;;;;;5052572;28;20557;-69
2021/08/11 02:05:13;;;;;;;12.53;10.17;;;;;;;;;;5052720;28;20233;-69
2021/08/11 02:07:39;;;;;;;13.23;9.70;;;;;;;;;;5052650;28;20184;-70
2021/08/11 02:10:05;;;;;;;14.23;10.60;;;;;;;;;;5052528;28;20687;-70
2021/08/11 02:12:30;;;;;;;14.57;11.30;;;;;;;;;;5052574;28;20251;-69
2021/08/11 02:14:56;;;;;;;12.83;10.47;;;;;;;;;;5065526;22;20695;-69
2021/08/11 02:17:21;;;;;;;12.87;9.47;;;;;;;;;;5051161;28;20573;-69
2021/08/11 02:19:46;;;;;;;13.70;11.37;;;;;;;;;;5051553;28;20217;-69
2021/08/11 02:22:12;;;;;;;17.03;11.77;;;;;;;;;;5052365;28;20182;-69
2021/08/11 02:24:37;;;;;;;14.57;11.57;;;;;;;;;;5052274;28;20185;-69
2021/08/11 02:27:10;;;;;;;15.53;11.20;;;;;;;;;;5051986;28;20197;-69
2021/08/11 02:29:41;;;;;;;16.30;12.57;;;;;;;;;;5051656;28;20234;-68
2021/08/11 02:32:23;;;;;;;18.00;14.50;;;;;;;;;;5052088;28;20671;-68
2021/08/11 02:34:48;;;;;;;19.30;12.67;;;;;;;;;;5051793;28;20178;-69
2021/08/11 02:37:20;;;;;;;16.73;12.40;;;;;;;;;;5051472;28;20188;-69
2021/08/11 02:39:47;;;;;;;21.23;14.37;;;;;;;;;;5051647;28;20578;-69
2021/08/11 02:42:15;;;;;;;21.77;13.57;;;;;;;;;;5051561;28;20184;-68
2021/08/11 02:44:44;;;;;;;18.20;14.90;;;;;;;;;;5051762;28;20170;-69
2021/08/11 02:47:10;;;;;;;24.33;16.53;;;;;;;;;;5051722;28;20169;-69
2021/08/11 02:49:36;;;;;;;20.17;13.97;;;;;;;;;;5048651;28;20725;-69
2021/08/11 02:52:01;;;;;;;18.03;13.63;;;;;;;;;;5051697;28;20183;-69
2021/08/11 02:54:28;;;;;;;21.87;13.00;;;;;;;;;;5051313;28;20170;-68
2021/08/11 02:56:54;;;;;;;18.87;13.40;;;;;;;;;;5050983;28;20205;-68
2021/08/11 02:59:20;;;;;;;18.90;14.30;;;;;;;;;;5051010;28;20562;-69
2021/08/11 03:01:46;;;;;;;18.10;12.57;;;;;;;;;;5051823;28;20196;-69
2021/08/11 03:04:12;;;;;;;22.83;16.87;;;;;;;;;;5051364;28;20174;-69
2021/08/11 03:06:37;;;;;;;22.83;15.70;;;;;;;;;;5051279;28;20281;-68
2021/08/11 03:09:03;;;;;;;26.13;18.70;;;;;;;;;;5051024;28;20182;-69
2021/08/11 03:11:28;;;;;;;25.90;17.60;;;;;;;;;;5051665;28;20215;-69
2021/08/11 03:13:54;;;;;;;22.50;17.23;;;;;;;;;;5033262;28;20227;-68
2021/08/11 03:16:20;;;;;;;26.50;18.75;;;;;;;;;;5051222;28;20205;-69
2021/08/11 03:18:45;;;;;;;21.63;15.80;;;;;;;;;;5039359;28;20340;-69
2021/08/11 03:21:10;;;;;;;24.43;15.90;;;;;;;;;;5051254;28;20257;-68
2021/08/11 03:23:35;;;;;;;20.00;14.80;;;;;;;;;;5051229;28;20192;-68
2021/08/11 03:26:01;;;;;;;18.50;14.07;;;;;;;;;;5033239;28;20324;-69
2021/08/11 03:28:26;;;;;;;28.33;16.63;;;;;;;;;;5050609;28;20200;-68
2021/08/11 03:30:51;;;;;;;23.37;15.53;;;;;;;;;;5050922;28;20640;-69
2021/08/11 03:33:16;;;;;;;24.53;17.70;;;;;;;;;;5050831;28;20189;-68
2021/08/11 03:35:42;;;;;;;24.48;17.50;;;;;;;;;;5050763;28;20280;-69
2021/08/11 03:38:07;;;;;;;28.10;18.37;;;;;;;;;;5050661;28;20359;-69
2021/08/11 03:40:33;;;;;;;29.33;19.47;;;;;;;;;;5050487;28;20247;-69
2021/08/11 03:42:58;;;;;;;26.83;18.73;;;;;;;;;;5050585;28;20690;-68
2021/08/11 03:45:23;;;;;;;25.53;18.03;;;;;;;;;;5050850;28;20674;-69
2021/08/11 03:47:49;;;;;;;25.07;17.47;;;;;;;;;;5048804;28;20179;-69
2021/08/11 03:50:15;;;;;;;27.20;18.53;;;;;;;;;;5049586;28;20264;-69
2021/08/11 03:52:41;;;;;;;27.17;19.67;;;;;;;;;;5050483;28;20586;-69
2021/08/11 03:55:07;;;;;;;29.80;19.33;;;;;;;;;;5050790;28;20197;-69
2021/08/11 03:57:32;;;;;;;33.07;21.53;;;;;;;;;;5050687;28;20212;-69
2021/08/11 03:59:57;;;;;;;31.70;20.47;;;;;;;;;;5031648;28;20213;-68
2021/08/11 04:02:22;;;;;;;25.20;17.87;;;;;;;;;;5050696;28;20257;-69
2021/08/11 04:04:47;;;;;;;31.17;20.43;;;;;;;;;;5050594;28;20759;-68
2021/08/11 04:07:12;;;;;;;28.47;20.47;;;;;;;;;;5050587;28;20244;-68
2021/08/11 04:09:38;;;;;;;27.33;19.10;;;;;;;;;;5050075;28;20181;-69
2021/08/11 04:12:03;;;;;;;37.53;24.17;;;;;;;;;;5050488;28;20189;-68
2021/08/11 04:14:28;;;;;;;37.77;22.43;;;;;;;;;;5050199;28;20248;-69
2021/08/11 04:16:53;;;;;;;39.87;25.07;;;;;;;;;;5050375;28;20293;-69
2021/08/11 04:19:18;;;;;;;42.17;25.43;;;;;;;;;;5050232;28;20192;-69
2021/08/11 04:21:43;;;;;;;38.27;24.93;;;;;;;;;;5051857;28;20653;-69
2021/08/11 04:24:09;;;;;;;34.73;21.83;;;;;;;;;;5053694;28;20170;-69
2021/08/11 04:26:34;;;;;;;40.13;23.33;;;;;;;;;;5050807;28;20689;-68
2021/08/11 04:28:59;;;;;;;39.83;23.33;;;;;;;;;;5049954;28;20174;-69
2021/08/11 04:31:24;;;;;;;33.10;22.70;;;;;;;;;;5050530;28;20549;-69
2021/08/11 04:33:49;;;;;;;33.60;21.53;;;;;;;;;;5050399;28;20192;-68
2021/08/11 04:36:15;;;;;;;35.77;22.13;;;;;;;;;;5050295;28;20583;-68
2021/08/11 04:38:40;;;;;;;36.90;22.63;;;;;;;;;;5050059;28;20178;-70
2021/08/11 04:41:05;;;;;;;41.47;24.57;;;;;;;;;;5050086;28;20186;-69
2021/08/11 04:43:30;;;;;;;39.60;24.55;;;;;;;;;;5050341;28;20287;-68
2021/08/11 04:45:56;;;;;;;36.60;23.87;;;;;;;;;;5050257;28;20190;-68
2021/08/11 04:48:21;;;;;;;42.20;25.13;;;;;;;;;;5047081;28;20174;-69
2021/08/11 04:50:46;;;;;;;37.50;24.10;;;;;;;;;;5050088;28;20655;-68
2021/08/11 04:53:11;;;;;;;39.37;23.13;;;;;;;;;;5050233;28;20174;-69
2021/08/11 04:55:37;;;;;;;45.27;25.97;;;;;;;;;;5049852;28;20730;-68
2021/08/11 04:58:02;;;;;;;32.53;20.88;;;;;;;;;;5050682;28;20174;-69
2021/08/11 05:00:27;;;;;;;42.10;25.07;;;;;;;;;;5053089;28;20208;-68
2021/08/11 05:02:52;;;;;;;46.00;27.65;;;;;;;;;;5036301;28;20182;-68
2021/08/11 05:05:17;;;;;;;48.78;27.95;;;;;;;;;;5053512;28;20197;-68
2021/08/11 05:07:42;;;;;;;47.10;27.20;;;;;;;;;;5053774;28;20589;-69
2021/08/11 05:10:08;;;;;;;44.42;25.23;;;;;;;;;;5053217;28;20189;-68
2021/08/11 05:12:33;;;;;;;40.78;24.52;;;;;;;;;;5053504;28;20188;-69
2021/08/11 05:14:59;;;;;;;36.90;23.58;;;;;;;;;;5053283;28;20626;-69
2021/08/11 05:17:24;;;;;;;42.30;24.50;;;;;;;;;;5052848;28;20181;-68
2021/08/11 05:19:50;;;;;;;37.50;25.20;;;;;;;;;;5035286;28;20201;-69
2021/08/11 05:22:16;;;;;;;43.22;26.58;;;;;;;;;;5053515;28;20581;-68
2021/08/11 05:24:41;;;;;;;38.22;25.48;;;;;;;;;;5053179;28;20182;-69
2021/08/11 05:27:07;;;;;;;40.13;25.23;;;;;;;;;;5053642;28;20243;-69
2021/08/11 05:29:32;;;;;;;33.10;22.50;;;;;;;;;;5052899;28;20686;-69
2021/08/11 05:31:57;;;;;;;35.45;23.73;;;;;;;;;;5053207;28;20173;-69
2021/08/11 05:34:22;;;;;;;31.95;23.23;;;;;;;;;;5053244;28;20177;-68
2021/08/11 05:36:48;;;;;;;38.40;23.33;;;;;;;;;;5053204;28;20242;-68
2021/08/11 05:39:13;;;;;;;33.55;23.13;;;;;;;;;;5052660;28;20200;-68
2021/08/11 05:41:38;;;;;;;35.53;23.45;;;;;;;;;;5052905;28;20173;-68
2021/08/11 05:44:04;;;;;;;35.00;22.77;;;;;;;;;;5052930;28;20213;-69
2021/08/11 05:46:29;;;;;;;25.83;19.83;;;;;;;;;;5035015;28;20445;-69
2021/08/11 05:48:55;;;;;;;28.33;19.05;;;;;;;;;;5032579;28;20201;-69
2021/08/11 05:51:20;;;;;;;23.77;18.85;;;;;;;;;;5052992;28;20170;-69
2021/08/11 05:53:45;;;;;;;23.58;17.80;;;;;;;;;;5052613;28;20181;-69
2021/08/11 05:56:10;;;;;;;22.87;16.60;;;;;;;;;;5053075;28;20197;-69
2021/08/11 05:58:35;;;;;;;23.47;16.33;;;;;;;;;;5052760;28;20415;-69
2021/08/11 06:01:00;;;;;;;18.87;16.50;;;;;;;;;;5055000;28;20553;-69
2021/08/11 06:03:26;;;;;;;21.00;17.10;;;;;;;;;;5052811;28;20411;-69
2021/08/11 06:05:51;;;;;;;20.38;15.77;;;;;;;;;;5052377;28;20529;-67
2021/08/11 06:08:16;;;;;;;20.38;16.13;;;;;;;;;;5052574;28;20263;-67
2021/08/11 06:10:41;;;;;;;18.27;15.68;;;;;;;;;;5052012;28;20651;-67
2021/08/11 06:13:06;;;;;;;19.33;15.50;;;;;;;;;;5052523;28;20189;-67
2021/08/11 06:15:32;;;;;;;19.17;15.60;;;;;;;;;;5052220;28;20339;-67
2021/08/11 06:17:57;;;;;;;20.13;14.38;;;;;;;;;;5034674;28;20173;-67
2021/08/11 06:20:22;;;;;;;18.40;14.75;;;;;;;;;;5049821;28;20273;-67
2021/08/11 06:22:48;;;;;;;16.13;13.05;;;;;;;;;;5052442;28;20177;-67
2021/08/11 06:25:13;;;;;;;17.90;13.50;;;;;;;;;;5051765;28;20203;-67
2021/08/11 06:27:39;;;;;;;16.35;13.13;;;;;;;;;;5052232;28;20249;-67
2021/08/11 06:30:05;;;;;;;14.80;12.60;;;;;;;;;;5051804;28;20182;-68
2021/08/11 06:32:30;;;;;;;16.95;12.88;;;;;;;;;;5052121;28;20197;-68
2021/08/11 06:34:56;;;;;;;16.35;13.27;;;;;;;;;;5051798;28;20209;-68
2021/08/11 06:37:21;;;;;;;16.88;12.82;;;;;;;;;;5051875;28;20757;-70
2021/08/11 06:39:46;;;;;;;15.80;12.35;;;;;;;;;;5051536;28;20200;-70
2021/08/11 06:42:12;;;;;;;16.30;11.50;;;;;;;;;;5051786;28;20647;-69
2021/08/11 06:44:37;;;;;;;18.83;13.03;;;;;;;;;;5051991;28;20456;-67
2021/08/11 06:47:02;;;;;;;13.63;11.37;;;;;;;;;;5051824;28;20964;-69
2021/08/11 06:49:27;;;;;;;14.95;11.88;;;;;;;;;;5048545;28;20402;-67
2021/08/11 06:51:52;;;;;;;16.10;13.43;;;;;;;;;;5051864;28;20208;-67
2021/08/11 06:54:18;;;;;;;14.70;11.02;;;;;;;;;;5051520;28;20421;-68
2021/08/11 06:56:43;;;;;;;12.52;10.60;;;;;;;;;;5052471;28;20224;-69
2021/08/11 06:59:08;;;;;;;14.07;9.75;;;;;;;;;;5051158;28;20208;-69
2021/08/11 07:01:33;;;;;;;11.57;9.70;;;;;;;;;;5051433;28;20177;-69
2021/08/11 07:03:59;;;;;;;13.55;9.90;;;;;;;;;;5051629;28;20201;-69
2021/08/11 07:06:24;;;;;;;15.00;10.73;;;;;;;;;;5051477;28;20267;-69
2021/08/11 07:08:49;;;;;;;14.53;10.20;;;;;;;;;;5051276;28;20189;-69
2021/08/11 07:11:14;;;;;;;12.43;9.02;;;;;;;;;;5051262;28;20403;-69
2021/08/11 07:13:40;;;;;;;14.13;9.40;;;;;;;;;;5051698;28;20189;-67
2021/08/11 07:16:05;;;;;;;13.82;9.65;;;;;;;;;;5051255;28;20454;-70
2021/08/11 07:18:30;;;;;;;11.73;8.48;;;;;;;;;;5051757;28;20225;-67
2021/08/11 07:20:55;;;;;;;11.18;8.05;;;;;;;;;;5051031;28;20237;-69
2021/08/11 07:23:20;;;;;;;13.57;8.52;;;;;;;;;;5051003;28;20241;-67
2021/08/11 07:25:46;;;;;;;10.30;7.75;;;;;;;;;;5033129;28;20201;-69
2021/08/11 07:28:12;;;;;;;9.57;7.50;;;;;;;;;;5051146;28;20182;-69
2021/08/11 07:30:37;;;;;;;9.15;6.78;;;;;;;;;;5050892;28;20526;-69
2021/08/11 07:33:04;;;;;;;11.57;7.47;;;;;;;;;;5050951;28;20698;-69
2021/08/11 07:35:29;;;;;;;10.30;7.25;;;;;;;;;;5051023;28;20193;-69
2021/08/11 07:37:55;;;;;;;9.48;6.72;;;;;;;;;;5051026;28;20239;-69
2021/08/11 07:40:21;;;;;;;8.18;6.63;;;;;;;;;;5051693;28;20186;-69
2021/08/11 07:42:47;;;;;;;11.00;7.78;;;;;;;;;;5052435;28;20169;-69
2021/08/11 07:45:13;;;;;;;10.88;8.65;;;;;;;;;;5051442;28;20193;-69
2021/08/11 07:47:38;;;;;;;13.45;8.00;;;;;;;;;;5050429;28;20667;-69
2021/08/11 07:50:04;;;;;;;8.63;7.03;;;;;;;;;;5048345;28;20181;-68
2021/08/11 07:52:29;;;;;;;9.45;7.35;;;;;;;;;;5051071;28;20177;-68
2021/08/11 07:54:54;;;;;;;8.48;6.82;;;;;;;;;;5050797;28;20173;-68
2021/08/11 07:57:19;;;;;;;11.13;7.70;;;;;;;;;;5033695;28;20660;-68
2021/08/11 07:59:44;;;;;;;12.83;7.40;;;;;;;;;;5050673;28;20624;-69
2021/08/11 08:02:11;;;;;;;8.60;6.77;;;;;;;;;;5050684;28;20493;-69
2021/08/11 08:04:36;;;;;;;10.80;8.32;;;;;;;;;;5050824;28;20415;-69
2021/08/11 08:07:02;;;;;;;11.73;6.80;;;;;;;;;;5050516;28;20272;-69
2021/08/11 08:09:27;;;;;;;10.75;7.93;;;;;;;;;;5050447;28;20177;-69
2021/08/11 08:11:52;;;;;;;7.70;6.20;;;;;;;;;;5050714;28;20194;-69
2021/08/11 08:14:17;;;;;;;10.77;7.20;;;;;;;;;;5050895;28;20251;-69
2021/08/11 08:16:43;;;;;;;9.63;7.07;;;;;;;;;;5063312;22;20578;-67
2021/08/11 08:19:09;;;;;;;8.55;6.38;;;;;;;;;;5050048;28;20276;-68
2021/08/11 08:21:35;;;;;;;8.90;6.90;;;;;;;;;;5032575;28;20197;-68
2021/08/11 08:24:00;;;;;;;10.15;6.40;;;;;;;;;;5050670;28;20169;-68
2021/08/11 08:26:25;;;;;;;10.60;7.07;;;;;;;;;;5050655;28;20197;-68
2021/08/11 08:28:50;;;;;;;8.45;5.95;;;;;;;;;;5050274;28;20417;-68
2021/08/11 08:31:16;;;;;;;7.55;6.00;;;;;;;;;;5050585;28;20184;-68
2021/08/11 08:33:41;;;;;;;10.60;6.20;;;;;;;;;;5051935;28;20173;-67
2021/08/11 08:36:06;;;;;;;7.35;5.93;;;;;;;;;;5054178;28;20193;-66
2021/08/11 08:38:32;;;;;;;7.28;5.10;;;;;;;;;;5054146;28;20223;-67
2021/08/11 08:40:57;;;;;;;6.77;5.27;;;;;;;;;;5054501;28;20198;-68
2021/08/11 08:43:22;;;;;;;7.13;5.10;;;;;;;;;;5053836;28;20441;-66
2021/08/11 08:45:48;;;;;;;11.53;8.77;;;;;;;;;;5054165;28;20412;-66
2021/08/11 08:48:14;;;;;;;6.38;5.00;;;;;;;;;;5053333;28;20414;-67
2021/08/11 08:50:40;;;;;;;7.07;4.85;;;;;;;;;;5053735;28;20173;-67
2021/08/11 08:53:05;;;;;;;7.55;5.20;;;;;;;;;;5054318;28;20178;-67
2021/08/11 08:55:32;;;;;;;7.78;4.90;;;;;;;;;;5053862;28;20215;-67
2021/08/11 08:57:57;;;;;;;6.65;5.38;;;;;;;;;;5053786;28;20299;-67
2021/08/11 09:00:23;;;;;;;6.45;4.45;;;;;;;;;;5046895;28;20210;-67
2021/08/11 09:02:48;;;;;;;8.18;4.85;;;;;;;;;;5053697;28;20181;-68
2021/08/11 09:05:14;;;;;;;7.90;5.85;;;;;;;;;;5053766;28;20632;-68
2021/08/11 09:07:46;;;;;;;6.10;4.22;;;;;;;;;;5053579;28;20178;-68
2021/08/11 09:10:28;;;;;;;6.90;4.43;;;;;;;;;;5053684;28;20174;-67
2021/08/11 09:12:54;;;;;;;6.97;4.65;;;;;;;;;;5053858;28;20186;-68
2021/08/11 09:15:38;;;;;;;4.57;3.78;;;;;;;;;;5053482;28;20662;-68
2021/08/11 09:18:09;;;;;;;9.68;4.38;;;;;;;;;;5053763;28;20243;-69
2021/08/11 09:20:35;;;;;;;5.25;3.25;;;;;;;;;;5053404;28;20213;-68
2021/08/11 09:23:00;;;;;;;5.23;3.63;;;;;;;;;;5053748;28;20174;-69
2021/08/11 09:25:26;;;;;;;6.35;3.60;;;;;;;;;;5053200;28;20452;-69
2021/08/11 09:27:51;;;;;;;5.57;4.15;;;;;;;;;;5053397;28;20212;-69
2021/08/11 09:30:17;;;;;;;4.20;3.38;;;;;;;;;;5053182;28;20685;-68
2021/08/11 09:32:47;;;;;;;4.30;3.33;;;;;;;;;;5053420;28;20569;-68
2021/08/11 09:35:13;;;;;;;4.82;3.25;;;;;;;;;;5053277;28;20174;-67
2021/08/11 09:37:39;;;;;;;8.00;3.88;;;;;;;;;;5053277;28;20251;-69
2021/08/11 09:40:10;;;;;;;5.07;3.63;;;;;;;;;;5052888;28;20278;-68
2021/08/11 09:42:36;;;;;;;4.65;3.53;;;;;;;;;;5053133;28;20182;-68
2021/08/11 09:45:01;;;;;;;8.13;3.55;;;;;;;;;;5052891;28;20170;-68
2021/08/11 09:47:27;;;;;;;6.85;3.35;;;;;;;;;;5053086;28;20643;-67
2021/08/11 09:50:19;;;;;;;4.45;3.38;;;;;;;;;;5034744;28;20201;-68
2021/08/11 09:52:46;;;;;;;5.68;3.67;;;;;;;;;;5046564;28;20189;-69
2021/08/11 09:55:12;;;;;;;6.70;3.17;;;;;;;;;;5052979;28;20184;-69
2021/08/11 09:57:37;;;;;;;7.22;3.78;;;;;;;;;;5035434;28;20188;-68
2021/08/11 10:00:02;;;;;;;7.67;3.90;;;;;;;;;;5052648;28;20200;-68
2021/08/11 10:02:27;;;;;;;6.15;3.72;;;;;;;;;;5052659;28;20182;-69
2021/08/11 10:04:52;;;;;;;5.40;3.53;;;;;;;;;;5052723;28;20639;-69
2021/08/11 10:07:18;;;;;;;4.38;3.60;;;;;;;;;;5052626;28;20433;-68
2021/08/11 10:09:58;;;;;;;4.57;3.10;;;;;;;;;;5052563;28;20619;-68
2021/08/11 10:12:28;;;;;;;6.20;3.70;;;;;;;;;;5051893;28;20178;-68
2021/08/11 10:14:54;;;;;;;6.15;3.15;;;;;;;;;;5053164;28;20179;-68
2021/08/11 10:17:20;;;;;;;7.50;3.55;;;;;;;;;;5052340;28;20201;-69
2021/08/11 10:19:45;;;;;;;4.93;3.70;;;;;;;;;;5052124;28;20205;-68
2021/08/11 10:22:11;;;;;;;5.60;4.38;;;;;;;;;;5052632;28;20407;-68
2021/08/11 10:24:38;;;;;;;6.93;3.42;;;;;;;;;;5052266;28;20170;-69
2021/08/11 10:27:07;;;;;;;5.00;3.47;;;;;;;;;;5051760;28;20202;-68
2021/08/11 10:29:33;;;;;;;6.90;3.42;;;;;;;;;;5052360;28;20169;-69
2021/08/11 10:32:00;;;;;;;5.38;3.63;;;;;;;;;;5052452;28;20273;-68
2021/08/11 10:34:29;;;;;;;4.28;3.05;;;;;;;;;;5052424;28;20276;-68
2021/08/11 10:36:54;;;;;;;7.25;3.40;;;;;;;;;;5052049;28;20197;-68
2021/08/11 10:39:21;;;;;;;5.07;3.75;;;;;;;;;;5051849;28;20681;-68
2021/08/11 10:41:47;;;;;;;5.25;4.25;;;;;;;;;;5051631;28;20209;-68
2021/08/11 10:44:16;;;;;;;5.50;3.95;;;;;;;;;;5052320;28;20221;-68
2021/08/11 10:46:43;;;;;;;5.50;3.72;;;;;;;;;;5052416;28;20276;-68
2021/08/11 10:49:09;;;;;;;4.78;3.97;;;;;;;;;;5050505;28;20177;-68
2021/08/11 10:51:35;;;;;;;6.95;3.65;;;;;;;;;;5051691;28;20534;-68
2021/08/11 10:54:04;;;;;;;4.45;3.28;;;;;;;;;;5051113;28;20201;-68
2021/08/11 10:56:43;;;;;;;6.75;3.13;;;;;;;;;;5051076;28;20226;-68
2021/08/11 10:59:31;;;;;;;8.05;4.78;;;;;;;;;;5051273;28;20655;-69
2021/08/11 11:01:57;;;;;;;6.60;4.22;;;;;;;;;;5048330;28;20174;-68
2021/08/11 11:04:39;;;;;;;6.53;4.53;;;;;;;;;;5055387;28;20707;-68
2021/08/11 11:07:07;;;;;;;6.03;3.78;;;;;;;;;;5051500;28;20228;-68
2021/08/11 11:09:32;;;;;;;5.82;2.90;;;;;;;;;;5051567;28;20184;-68
2021/08/11 11:11:57;;;;;;;4.47;2.93;;;;;;;;;;5052071;28;20185;-66
2021/08/11 11:14:41;;;;;;;4.37;3.03;;;;;;;;;;5051893;28;20409;-69
2021/08/11 11:17:06;;;;;;;5.10;3.38;;;;;;;;;;5049070;28;20213;-65
2021/08/11 11:19:32;;;;;;;5.60;3.97;;;;;;;;;;5051280;28;20202;-67
2021/08/11 11:21:57;;;;;;;6.15;3.72;;;;;;;;;;5051518;28;20755;-68
2021/08/11 11:24:41;;;;;;;5.68;4.53;;;;;;;;;;5046343;28;20166;-68
2021/08/11 11:27:26;;;;;;;5.72;3.50;;;;;;;;;;5051293;28;20220;-68
2021/08/11 11:29:52;;;;;;;7.68;4.60;;;;;;;;;;5046581;28;20177;-68
2021/08/11 11:32:24;;;;;;;4.88;3.80;;;;;;;;;;5051131;28;20185;-67
2021/08/11 11:35:09;;;;;;;7.32;3.90;;;;;;;;;;5051090;28;20185;-68
2021/08/11 11:37:35;;;;;;;5.53;3.65;;;;;;;;;;5048218;28;20548;-68
2021/08/11 11:40:03;;;;;;;3.92;3.35;;;;;;;;;;5050730;28;20209;-68
2021/08/11 11:42:29;;;;;;;4.43;3.35;;;;;;;;;;5033192;28;20227;-69
2021/08/11 11:44:57;;;;;;;4.28;3.28;;;;;;;;;;5050999;28;20211;-68
2021/08/11 11:47:41;;;;;;;6.70;3.80;;;;;;;;;;5047517;28;20228;-68
2021/08/11 11:50:18;;;;;;;5.35;3.65;;;;;;;;;;5050685;28;20663;-68
2021/08/11 11:52:47;;;;;;;5.95;3.25;;;;;;;;;;5047383;28;20185;-68
2021/08/11 11:55:13;;;;;;;4.80;4.10;;;;;;;;;;5050941;28;20585;-69
2021/08/11 11:57:38;;;;;;;4.78;3.17;;;;;;;;;;5050802;28;20177;-68
2021/08/11 12:00:04;;;;;;;5.85;3.17;;;;;;;;;;5050801;28;20201;-69
2021/08/11 12:02:29;;;;;;;5.00;3.42;;;;;;;;;;5050968;28;20181;-68
2021/08/11 12:05:04;;;;;;;4.30;3.13;;;;;;;;;;5050906;28;20182;-68
2021/08/11 12:07:33;;;;;;;5.80;3.20;;;;;;;;;;5050565;28;20170;-67
2021/08/11 12:09:59;;;;;;;3.13;2.42;;;;;;;;;;5054735;28;20231;-69
2021/08/11 12:12:24;;;;;;;4.28;3.20;;;;;;;;;;5055160;28;20186;-68
2021/08/11 12:14:50;;;;;;;5.28;3.40;;;;;;;;;;5054829;28;20586;-69
2021/08/11 12:17:28;;;;;;;5.23;3.00;;;;;;;;;;5054688;28;20270;-69
2021/08/11 12:19:53;;;;;;;5.35;3.40;;;;;;;;;;5054131;28;20799;-68
2021/08/11 12:22:34;;;;;;;5.43;3.60;;;;;;;;;;5054987;28;20184;-68
2021/08/11 12:24:59;;;;;;;4.28;2.95;;;;;;;;;;5051491;28;20316;-68
2021/08/11 12:27:24;;;;;;;4.13;2.90;;;;;;;;;;5054787;28;20187;-69
2021/08/11 12:30:10;;;;;;;3.95;3.03;;;;;;;;;;5054166;28;20265;-66
2021/08/11 12:32:35;;;;;;;6.43;2.97;;;;;;;;;;5050891;28;20225;-69
2021/08/11 12:35:00;;;;;;;4.50;4.07;;;;;;;;;;5054569;28;20212;-67
2021/08/11 12:37:25;;;;;;;5.80;3.67;;;;;;;;;;5054648;28;20546;-66
2021/08/11 12:39:50;;;;;;;3.77;3.23;;;;;;;;;;5054105;28;20823;-66
2021/08/11 12:42:15;;;;;;;4.13;3.10;;;;;;;;;;5054286;28;20227;-68
2021/08/11 12:44:41;;;;;;;3.73;3.10;;;;;;;;;;5054131;28;20184;-68
2021/08/11 12:47:06;;;;;;;5.43;4.23;;;;;;;;;;5054413;28;20197;-68
2021/08/11 12:49:35;;;;;;;5.83;4.13;;;;;;;;;;5052678;28;20170;-67
2021/08/11 12:52:03;;;;;;;5.50;3.58;;;;;;;;;;5053700;28;20912;-68
2021/08/11 12:54:28;;;;;;;5.30;3.42;;;;;;;;;;5054083;28;20223;-67
2021/08/11 12:56:54;;;;;;;4.30;3.13;;;;;;;;;;5054016;28;20189;-67
2021/08/11 12:59:19;;;;;;;4.97;3.47;;;;;;;;;;5053557;28;20253;-67
2021/08/11 13:01:45;;;;;;;5.47;3.30;;;;;;;;;;5054376;28;20613;-67
2021/08/11 13:04:21;;;;;;;4.47;2.95;;;;;;;;;;5053727;28;20182;-66
2021/08/11 13:06:47;;;;;;;5.05;3.60;;;;;;;;;;5049216;28;20694;-67
2021/08/11 13:09:18;;;;;;;4.70;2.55;;;;;;;;;;5053332;28;20185;-67
2021/08/11 13:11:48;;;;;;;3.95;2.22;;;;;;;;;;5054051;28;20177;-68
2021/08/11 13:14:13;;;;;;;4.07;2.88;;;;;;;;;;5053520;28;20685;-67
2021/08/11 13:16:38;;;;;;;5.47;2.77;;;;;;;;;;5053692;28;20248;-67
2021/08/11 13:19:17;;;;;;;3.83;2.53;;;;;;;;;;5052802;28;20516;-66
2021/08/11 13:21:42;;;;;;;2.50;2.30;;;;;;;;;;5053645;28;20177;-68
2021/08/11 13:24:07;;;;;;;2.45;2.13;;;;;;;;;;5053861;28;20697;-67
2021/08/11 13:26:32;;;;;;;4.90;2.65;;;;;;;;;;5053672;28;20193;-67
2021/08/11 13:28:58;;;;;;;6.15;3.25;;;;;;;;;;5053040;28;20196;-67
2021/08/11 13:31:23;;;;;;;4.83;2.97;;;;;;;;;;5053621;28;20219;-67
2021/08/11 13:33:48;;;;;;;3.13;2.60;;;;;;;;;;5053190;28;20427;-68
2021/08/11 13:36:13;;;;;;;7.30;2.80;;;;;;;;;;5053412;28;20201;-67
2021/08/11 13:38:38;;;;;;;3.80;3.07;;;;;;;;;;5053030;28;20417;-68
2021/08/11 13:41:03;;;;;;;3.83;2.97;;;;;;;;;;5053098;28;20212;-67
2021/08/11 13:43:29;;;;;;;4.30;2.80;;;;;;;;;;5053478;28;20406;-68
2021/08/11 13:45:54;;;;;;;4.13;2.30;;;;;;;;;;5053229;28;20666;-68
2021/08/11 13:48:19;;;;;;;4.37;2.83;;;;;;;;;;5052127;28;20815;-67
2021/08/11 13:50:44;;;;;;;3.70;2.70;;;;;;;;;;5052342;28;20186;-68
2021/08/11 13:53:09;;;;;;;5.03;3.33;;;;;;;;;;5053363;28;20667;-68
2021/08/11 13:55:34;;;;;;;4.30;2.50;;;;;;;;;;5052683;28;20431;-68
2021/08/11 13:58:00;;;;;;;4.00;2.50;;;;;;;;;;5052906;28;20179;-68
2021/08/11 14:00:26;;;;;;;3.97;2.80;;;;;;;;;;5052548;28;20208;-67
2021/08/11 14:02:51;;;;;;;2.90;2.60;;;;;;;;;;5053341;28;20453;-67
2021/08/11 14:05:16;;;;;;;3.97;3.23;;;;;;;;;;5052628;28;20181;-68
2021/08/11 14:07:41;;;;;;;5.53;3.63;;;;;;;;;;5052903;28;20395;-67
2021/08/11 14:10:07;;;;;;;5.53;3.10;;;;;;;;;;5052272;28;20456;-68
2021/08/11 14:12:32;;;;;;;4.63;2.60;;;;;;;;;;5052791;28;20231;-68
2021/08/11 14:14:57;;;;;;;4.77;3.57;;;;;;;;;;5052544;28;20174;-67
2021/08/11 14:17:23;;;;;;;4.60;3.40;;;;;;;;;;5064302;22;20868;-69
2021/08/11 14:19:48;;;;;;;5.45;4.00;;;;;;;;;;5051044;28;20190;-69
2021/08/11 14:22:13;;;;;;;3.73;3.10;;;;;;;;;;5052171;28;20604;-68
2021/08/11 14:24:38;;;;;;;5.43;4.07;;;;;;;;;;5051849;28;20195;-69
2021/08/11 14:27:04;;;;;;;4.00;3.50;;;;;;;;;;5056282;28;20303;-69